sensor_id;sensor_type;location;lat;lon;timestamp;P1;durP1;ratioP1;P2;durP2;ratioP2
45316;SDS011;31053;55.870;37.592;2023-02-18T00:08:03;37.28;;;13.02;;
45316;SDS011;31053;55.870;37.592;2023-02-18T00:11:11;33.57;;;12.73;;
45316;SDS011;31053;55.870;37.592;2023-02-18T00:14:18;30.95;;;11.10;;
45316;SDS011;31053;55.870;37.592;2023-02-18T00:17:22;31.42;;;12.15;;
45316;SDS011;31053;55.870;37.592;2023-02-18T00:20:28;40.35;;;13.27;;
45316;SDS011;31053;55.870;37.592;2023-02-18T00:23:32;36.60;;;13.38;;
45316;SDS011;31053;55.870;37.592;2023-02-18T00:26:41;37.70;;;13.52;;
45316;SDS011;31053;55.870;37.592;2023-02-18T00:29:46;29.35;;;11.30;;
45316;SDS011;31053;55.870;37.592;2023-02-18T00:32:50;37.78;;;13.43;;
45316;SDS011;31053;55.870;37.592;2023-02-18T00:36:00;41.50;;;13.30;;
45316;SDS011;31053;55.870;37.592;2023-02-18T00:39:11;29.48;;;11.90;;
45316;SDS011;31053;55.870;37.592;2023-02-18T00:42:16;44.10;;;13.93;;
45316;SDS011;31053;55.870;37.592;2023-02-18T00:45:21;32.95;;;12.57;;
45316;SDS011;31053;55.870;37.592;2023-02-18T00:48:26;30.35;;;12.45;;
45316;SDS011;31053;55.870;37.592;2023-02-18T00:51:30;41.03;;;15.02;;
45316;SDS011;31053;55.870;37.592;2023-02-18T00:54:38;29.02;;;12.30;;
45316;SDS011;31053;55.870;37.592;2023-02-18T00:57:42;34.10;;;11.63;;
45316;SDS011;31053;55.870;37.592;2023-02-18T01:00:47;36.35;;;13.60;;
45316;SDS011;31053;55.870;37.592;2023-02-18T01:03:52;37.08;;;14.02;;
45316;SDS011;31053;55.870;37.592;2023-02-18T01:06:58;27.23;;;9.63;;
45316;SDS011;31053;55.870;37.592;2023-02-18T01:10:03;35.05;;;13.68;;
45316;SDS011;31053;55.870;37.592;2023-02-18T01:16:16;27.42;;;10.30;;
45316;SDS011;31053;55.870;37.592;2023-02-18T01:19:20;34.55;;;13.57;;
45316;SDS011;31053;55.870;37.592;2023-02-18T01:22:25;35.72;;;13.05;;
45316;SDS011;31053;55.870;37.592;2023-02-18T01:25:30;29.80;;;11.10;;
45316;SDS011;31053;55.870;37.592;2023-02-18T01:28:35;36.60;;;13.80;;
45316;SDS011;31053;55.870;37.592;2023-02-18T01:31:39;33.35;;;11.45;;
45316;SDS011;31053;55.870;37.592;2023-02-18T01:34:44;29.52;;;11.15;;
45316;SDS011;31053;55.870;37.592;2023-02-18T01:37:49;32.83;;;12.93;;
45316;SDS011;31053;55.870;37.592;2023-02-18T01:40:54;27.20;;;9.23;;
45316;SDS011;31053;55.870;37.592;2023-02-18T01:47:17;34.80;;;11.35;;
45316;SDS011;31053;55.870;37.592;2023-02-18T01:50:21;23.35;;;9.68;;
45316;SDS011;31053;55.870;37.592;2023-02-18T01:53:29;27.55;;;8.93;;
45316;SDS011;31053;55.870;37.592;2023-02-18T01:56:47;34.05;;;12.68;;
45316;SDS011;31053;55.870;37.592;2023-02-18T01:59:56;25.35;;;8.73;;
45316;SDS011;31053;55.870;37.592;2023-02-18T02:03:03;36.45;;;12.57;;
45316;SDS011;31053;55.870;37.592;2023-02-18T02:06:09;30.02;;;10.18;;
45316;SDS011;31053;55.870;37.592;2023-02-18T02:09:20;35.30;;;13.07;;
45316;SDS011;31053;55.870;37.592;2023-02-18T02:18:46;31.45;;;12.73;;
45316;SDS011;31053;55.870;37.592;2023-02-18T02:22:16;32.95;;;11.27;;
45316;SDS011;31053;55.870;37.592;2023-02-18T02:29:30;31.58;;;12.60;;
45316;SDS011;31053;55.870;37.592;2023-02-18T02:36:05;27.95;;;10.82;;
45316;SDS011;31053;55.870;37.592;2023-02-18T02:42:47;31.92;;;11.48;;
45316;SDS011;31053;55.870;37.592;2023-02-18T02:46:18;39.50;;;13.18;;
45316;SDS011;31053;55.870;37.592;2023-02-18T02:49:36;28.45;;;10.75;;
45316;SDS011;31053;55.870;37.592;2023-02-18T02:53:27;29.15;;;11.57;;
45316;SDS011;31053;55.870;37.592;2023-02-18T02:56:34;28.73;;;11.93;;
45316;SDS011;31053;55.870;37.592;2023-02-18T02:59:41;37.83;;;13.27;;
45316;SDS011;31053;55.870;37.592;2023-02-18T03:06:52;35.72;;;11.25;;
45316;SDS011;31053;55.870;37.592;2023-02-18T03:10:27;31.05;;;12.00;;
45316;SDS011;31053;55.870;37.592;2023-02-18T03:13:48;30.90;;;12.25;;
45316;SDS011;31053;55.870;37.592;2023-02-18T03:17:00;26.63;;;12.23;;
45316;SDS011;31053;55.870;37.592;2023-02-18T03:20:22;27.10;;;11.63;;
45316;SDS011;31053;55.870;37.592;2023-02-18T03:23:36;34.25;;;13.30;;
45316;SDS011;31053;55.870;37.592;2023-02-18T03:26:47;28.48;;;11.75;;
45316;SDS011;31053;55.870;37.592;2023-02-18T03:30:04;27.23;;;11.15;;
45316;SDS011;31053;55.870;37.592;2023-02-18T03:33:22;30.00;;;11.13;;
45316;SDS011;31053;55.870;37.592;2023-02-18T03:36:33;42.55;;;12.98;;
45316;SDS011;31053;55.870;37.592;2023-02-18T03:39:40;31.20;;;11.98;;
45316;SDS011;31053;55.870;37.592;2023-02-18T03:42:47;36.70;;;13.15;;
45316;SDS011;31053;55.870;37.592;2023-02-18T03:45:53;39.92;;;13.90;;
45316;SDS011;31053;55.870;37.592;2023-02-18T03:48:59;59.58;;;19.63;;
45316;SDS011;31053;55.870;37.592;2023-02-18T03:52:04;54.88;;;19.92;;
45316;SDS011;31053;55.870;37.592;2023-02-18T03:55:09;47.50;;;19.02;;
45316;SDS011;31053;55.870;37.592;2023-02-18T03:58:32;60.65;;;21.10;;
45316;SDS011;31053;55.870;37.592;2023-02-18T04:01:38;69.82;;;23.15;;
45316;SDS011;31053;55.870;37.592;2023-02-18T04:04:44;44.77;;;17.20;;
45316;SDS011;31053;55.870;37.592;2023-02-18T04:07:50;68.63;;;24.48;;
45316;SDS011;31053;55.870;37.592;2023-02-18T04:10:57;76.47;;;24.50;;
45316;SDS011;31053;55.870;37.592;2023-02-18T04:14:03;61.65;;;20.90;;
45316;SDS011;31053;55.870;37.592;2023-02-18T04:17:08;50.97;;;18.55;;
45316;SDS011;31053;55.870;37.592;2023-02-18T04:20:13;58.83;;;18.52;;
45316;SDS011;31053;55.870;37.592;2023-02-18T04:23:19;73.07;;;23.23;;
45316;SDS011;31053;55.870;37.592;2023-02-18T04:26:24;56.05;;;18.98;;
45316;SDS011;31053;55.870;37.592;2023-02-18T04:29:30;63.53;;;22.33;;
45316;SDS011;31053;55.870;37.592;2023-02-18T04:32:37;55.25;;;20.55;;
45316;SDS011;31053;55.870;37.592;2023-02-18T04:35:42;64.22;;;21.92;;
45316;SDS011;31053;55.870;37.592;2023-02-18T04:38:47;60.22;;;19.02;;
45316;SDS011;31053;55.870;37.592;2023-02-18T04:41:52;46.47;;;18.70;;
45316;SDS011;31053;55.870;37.592;2023-02-18T04:44:57;54.63;;;18.80;;
45316;SDS011;31053;55.870;37.592;2023-02-18T04:48:03;64.03;;;21.85;;
45316;SDS011;31053;55.870;37.592;2023-02-18T04:51:09;64.03;;;22.05;;
45316;SDS011;31053;55.870;37.592;2023-02-18T04:54:15;47.80;;;18.17;;
45316;SDS011;31053;55.870;37.592;2023-02-18T04:57:20;58.65;;;20.33;;
45316;SDS011;31053;55.870;37.592;2023-02-18T05:00:24;54.85;;;19.02;;
45316;SDS011;31053;55.870;37.592;2023-02-18T05:03:32;45.78;;;18.58;;
45316;SDS011;31053;55.870;37.592;2023-02-18T05:06:36;45.37;;;17.67;;
45316;SDS011;31053;55.870;37.592;2023-02-18T05:09:46;49.15;;;17.60;;
45316;SDS011;31053;55.870;37.592;2023-02-18T05:12:52;56.20;;;18.05;;
45316;SDS011;31053;55.870;37.592;2023-02-18T05:15:56;42.08;;;16.08;;
45316;SDS011;31053;55.870;37.592;2023-02-18T05:19:01;41.63;;;15.57;;
45316;SDS011;31053;55.870;37.592;2023-02-18T05:22:06;46.80;;;18.15;;
45316;SDS011;31053;55.870;37.592;2023-02-18T05:25:11;45.13;;;17.17;;
45316;SDS011;31053;55.870;37.592;2023-02-18T05:28:16;42.85;;;17.90;;
45316;SDS011;31053;55.870;37.592;2023-02-18T05:31:22;51.22;;;19.60;;
45316;SDS011;31053;55.870;37.592;2023-02-18T05:34:27;36.55;;;14.70;;
45316;SDS011;31053;55.870;37.592;2023-02-18T05:37:32;45.28;;;16.73;;
45316;SDS011;31053;55.870;37.592;2023-02-18T05:40:37;40.00;;;16.13;;
45316;SDS011;31053;55.870;37.592;2023-02-18T05:43:43;41.20;;;16.45;;
45316;SDS011;31053;55.870;37.592;2023-02-18T05:47:08;52.13;;;18.13;;
45316;SDS011;31053;55.870;37.592;2023-02-18T05:50:15;42.03;;;15.95;;
45316;SDS011;31053;55.870;37.592;2023-02-18T05:53:34;55.30;;;20.13;;
45316;SDS011;31053;55.870;37.592;2023-02-18T06:01:07;53.65;;;19.73;;
45316;SDS011;31053;55.870;37.592;2023-02-18T06:04:12;48.88;;;19.17;;
45316;SDS011;31053;55.870;37.592;2023-02-18T06:07:17;66.43;;;24.48;;
45316;SDS011;31053;55.870;37.592;2023-02-18T06:13:29;72.30;;;26.65;;
45316;SDS011;31053;55.870;37.592;2023-02-18T06:16:35;69.65;;;25.65;;
45316;SDS011;31053;55.870;37.592;2023-02-18T06:19:41;57.67;;;21.75;;
45316;SDS011;31053;55.870;37.592;2023-02-18T06:22:49;58.28;;;22.65;;
45316;SDS011;31053;55.870;37.592;2023-02-18T06:25:53;54.50;;;22.98;;
45316;SDS011;31053;55.870;37.592;2023-02-18T06:28:58;50.13;;;20.80;;
45316;SDS011;31053;55.870;37.592;2023-02-18T06:32:03;58.58;;;19.83;;
45316;SDS011;31053;55.870;37.592;2023-02-18T06:35:07;49.28;;;19.48;;
45316;SDS011;31053;55.870;37.592;2023-02-18T06:38:12;43.83;;;17.05;;
45316;SDS011;31053;55.870;37.592;2023-02-18T06:41:16;37.90;;;15.10;;
45316;SDS011;31053;55.870;37.592;2023-02-18T06:44:21;34.67;;;14.13;;
45316;SDS011;31053;55.870;37.592;2023-02-18T06:47:28;29.58;;;12.35;;
45316;SDS011;31053;55.870;37.592;2023-02-18T06:50:32;38.75;;;12.15;;
45316;SDS011;31053;55.870;37.592;2023-02-18T06:53:37;25.42;;;10.20;;
45316;SDS011;31053;55.870;37.592;2023-02-18T06:56:41;22.95;;;9.75;;
45316;SDS011;31053;55.870;37.592;2023-02-18T06:59:46;18.48;;;8.43;;
45316;SDS011;31053;55.870;37.592;2023-02-18T07:02:51;21.60;;;9.35;;
45316;SDS011;31053;55.870;37.592;2023-02-18T07:05:56;16.73;;;8.15;;
45316;SDS011;31053;55.870;37.592;2023-02-18T07:09:01;27.85;;;7.65;;
45316;SDS011;31053;55.870;37.592;2023-02-18T07:12:07;19.35;;;9.25;;
45316;SDS011;31053;55.870;37.592;2023-02-18T07:15:15;20.02;;;7.25;;
45316;SDS011;31053;55.870;37.592;2023-02-18T07:18:24;15.38;;;7.00;;
45316;SDS011;31053;55.870;37.592;2023-02-18T07:21:32;16.50;;;7.72;;
45316;SDS011;31053;55.870;37.592;2023-02-18T07:24:37;11.40;;;5.35;;
45316;SDS011;31053;55.870;37.592;2023-02-18T07:27:42;16.90;;;7.30;;
45316;SDS011;31053;55.870;37.592;2023-02-18T07:30:46;19.65;;;7.18;;
45316;SDS011;31053;55.870;37.592;2023-02-18T07:33:53;15.70;;;7.35;;
45316;SDS011;31053;55.870;37.592;2023-02-18T07:36:59;11.75;;;6.60;;
45316;SDS011;31053;55.870;37.592;2023-02-18T07:40:03;18.95;;;7.03;;
45316;SDS011;31053;55.870;37.592;2023-02-18T07:43:08;15.00;;;7.73;;
45316;SDS011;31053;55.870;37.592;2023-02-18T07:46:13;17.40;;;6.78;;
45316;SDS011;31053;55.870;37.592;2023-02-18T07:49:18;12.37;;;5.73;;
45316;SDS011;31053;55.870;37.592;2023-02-18T07:52:23;17.42;;;7.13;;
45316;SDS011;31053;55.870;37.592;2023-02-18T07:55:27;13.43;;;7.05;;
45316;SDS011;31053;55.870;37.592;2023-02-18T07:58:59;14.55;;;6.22;;
45316;SDS011;31053;55.870;37.592;2023-02-18T08:02:04;11.43;;;6.18;;
45316;SDS011;31053;55.870;37.592;2023-02-18T08:05:13;16.65;;;6.63;;
45316;SDS011;31053;55.870;37.592;2023-02-18T08:08:25;11.90;;;6.05;;
45316;SDS011;31053;55.870;37.592;2023-02-18T08:11:32;16.40;;;6.93;;
45316;SDS011;31053;55.870;37.592;2023-02-18T08:14:37;10.10;;;6.27;;
45316;SDS011;31053;55.870;37.592;2023-02-18T08:17:41;15.10;;;6.30;;
45316;SDS011;31053;55.870;37.592;2023-02-18T08:20:46;12.43;;;7.00;;
45316;SDS011;31053;55.870;37.592;2023-02-18T08:23:52;10.80;;;5.78;;
45316;SDS011;31053;55.870;37.592;2023-02-18T08:26:57;14.70;;;6.25;;
45316;SDS011;31053;55.870;37.592;2023-02-18T08:30:01;14.55;;;6.35;;
45316;SDS011;31053;55.870;37.592;2023-02-18T08:36:12;14.05;;;7.22;;
45316;SDS011;31053;55.870;37.592;2023-02-18T08:39:16;15.30;;;5.80;;
45316;SDS011;31053;55.870;37.592;2023-02-18T08:42:21;13.95;;;6.82;;
45316;SDS011;31053;55.870;37.592;2023-02-18T08:45:35;16.48;;;6.45;;
45316;SDS011;31053;55.870;37.592;2023-02-18T08:48:42;15.25;;;5.88;;
45316;SDS011;31053;55.870;37.592;2023-02-18T08:51:53;13.10;;;5.65;;
45316;SDS011;31053;55.870;37.592;2023-02-18T08:55:03;13.18;;;6.18;;
45316;SDS011;31053;55.870;37.592;2023-02-18T08:58:19;10.40;;;5.35;;
45316;SDS011;31053;55.870;37.592;2023-02-18T09:01:35;13.32;;;6.57;;
45316;SDS011;31053;55.870;37.592;2023-02-18T09:04:51;16.80;;;6.80;;
45316;SDS011;31053;55.870;37.592;2023-02-18T09:07:59;9.88;;;5.53;;
45316;SDS011;31053;55.870;37.592;2023-02-18T09:11:04;13.95;;;6.18;;
45316;SDS011;31053;55.870;37.592;2023-02-18T09:14:12;14.02;;;7.03;;
45316;SDS011;31053;55.870;37.592;2023-02-18T09:17:19;11.00;;;6.25;;
45316;SDS011;31053;55.870;37.592;2023-02-18T09:20:26;14.77;;;6.68;;
45316;SDS011;31053;55.870;37.592;2023-02-18T09:23:32;13.02;;;6.30;;
45316;SDS011;31053;55.870;37.592;2023-02-18T09:26:37;13.95;;;6.10;;
45316;SDS011;31053;55.870;37.592;2023-02-18T09:29:43;7.82;;;4.65;;
45316;SDS011;31053;55.870;37.592;2023-02-18T09:32:49;16.20;;;6.32;;
45316;SDS011;31053;55.870;37.592;2023-02-18T09:35:55;9.40;;;5.35;;
45316;SDS011;31053;55.870;37.592;2023-02-18T09:39:01;13.02;;;5.32;;
45316;SDS011;31053;55.870;37.592;2023-02-18T09:42:07;15.75;;;6.30;;
45316;SDS011;31053;55.870;37.592;2023-02-18T09:45:16;12.98;;;6.22;;
45316;SDS011;31053;55.870;37.592;2023-02-18T09:48:26;14.60;;;6.20;;
45316;SDS011;31053;55.870;37.592;2023-02-18T09:51:33;20.77;;;6.57;;
45316;SDS011;31053;55.870;37.592;2023-02-18T09:54:49;8.85;;;4.95;;
45316;SDS011;31053;55.870;37.592;2023-02-18T10:01:10;14.05;;;5.95;;
45316;SDS011;31053;55.870;37.592;2023-02-18T10:04:29;13.57;;;4.80;;
45316;SDS011;31053;55.870;37.592;2023-02-18T10:07:37;15.88;;;6.78;;
45316;SDS011;31053;55.870;37.592;2023-02-18T10:10:44;10.48;;;5.57;;
45316;SDS011;31053;55.870;37.592;2023-02-18T10:13:49;10.35;;;5.15;;
45316;SDS011;31053;55.870;37.592;2023-02-18T10:16:56;11.82;;;6.25;;
45316;SDS011;31053;55.870;37.592;2023-02-18T10:20:01;12.07;;;5.80;;
45316;SDS011;31053;55.870;37.592;2023-02-18T10:23:07;11.30;;;5.90;;
45316;SDS011;31053;55.870;37.592;2023-02-18T10:26:14;14.65;;;6.55;;
45316;SDS011;31053;55.870;37.592;2023-02-18T10:32:35;10.73;;;5.93;;
45316;SDS011;31053;55.870;37.592;2023-02-18T10:35:55;11.63;;;5.68;;
45316;SDS011;31053;55.870;37.592;2023-02-18T10:39:12;21.80;;;5.50;;
45316;SDS011;31053;55.870;37.592;2023-02-18T10:42:31;10.02;;;6.00;;
45316;SDS011;31053;55.870;37.592;2023-02-18T10:52:33;11.38;;;6.05;;
45316;SDS011;31053;55.870;37.592;2023-02-18T10:55:47;11.38;;;6.00;;
45316;SDS011;31053;55.870;37.592;2023-02-18T10:58:57;9.15;;;5.70;;
45316;SDS011;31053;55.870;37.592;2023-02-18T11:02:16;14.93;;;6.93;;
45316;SDS011;31053;55.870;37.592;2023-02-18T11:05:22;15.15;;;7.18;;
45316;SDS011;31053;55.870;37.592;2023-02-18T11:08:30;14.98;;;7.18;;
45316;SDS011;31053;55.870;37.592;2023-02-18T11:11:44;15.20;;;7.28;;
45316;SDS011;31053;55.870;37.592;2023-02-18T11:14:50;14.73;;;7.20;;
45316;SDS011;31053;55.870;37.592;2023-02-18T11:18:24;14.57;;;6.22;;
45316;SDS011;31053;55.870;37.592;2023-02-18T11:21:40;13.48;;;8.13;;
45316;SDS011;31053;55.870;37.592;2023-02-18T11:24:45;15.27;;;5.90;;
45316;SDS011;31053;55.870;37.592;2023-02-18T11:27:57;9.48;;;5.80;;
45316;SDS011;31053;55.870;37.592;2023-02-18T11:31:04;15.13;;;7.03;;
45316;SDS011;31053;55.870;37.592;2023-02-18T11:34:16;11.75;;;6.47;;
45316;SDS011;31053;55.870;37.592;2023-02-18T11:37:23;10.65;;;6.10;;
45316;SDS011;31053;55.870;37.592;2023-02-18T11:40:29;13.45;;;6.38;;
45316;SDS011;31053;55.870;37.592;2023-02-18T11:43:36;13.13;;;6.88;;
45316;SDS011;31053;55.870;37.592;2023-02-18T11:50:33;17.65;;;8.27;;
45316;SDS011;31053;55.870;37.592;2023-02-18T11:53:50;12.98;;;6.60;;
45316;SDS011;31053;55.870;37.592;2023-02-18T12:03:29;17.23;;;7.82;;
45316;SDS011;31053;55.870;37.592;2023-02-18T12:06:48;14.02;;;6.15;;
45316;SDS011;31053;55.870;37.592;2023-02-18T12:10:27;16.08;;;6.53;;
45316;SDS011;31053;55.870;37.592;2023-02-18T12:13:35;13.13;;;6.15;;
45316;SDS011;31053;55.870;37.592;2023-02-18T12:20:26;15.10;;;6.22;;
45316;SDS011;31053;55.870;37.592;2023-02-18T12:30:31;12.32;;;6.80;;
45316;SDS011;31053;55.870;37.592;2023-02-18T12:41:53;15.07;;;7.35;;
45316;SDS011;31053;55.870;37.592;2023-02-18T12:51:37;12.20;;;6.03;;
45316;SDS011;31053;55.870;37.592;2023-02-18T13:04:53;11.23;;;5.78;;
45316;SDS011;31053;55.870;37.592;2023-02-18T13:08:20;15.02;;;6.53;;
45316;SDS011;31053;55.870;37.592;2023-02-18T13:18:31;16.05;;;7.10;;
45316;SDS011;31053;55.870;37.592;2023-02-18T13:21:52;12.30;;;6.50;;
45316;SDS011;31053;55.870;37.592;2023-02-18T13:25:11;13.07;;;6.40;;
45316;SDS011;31053;55.870;37.592;2023-02-18T13:37:10;16.73;;;6.82;;
45316;SDS011;31053;55.870;37.592;2023-02-18T13:40:24;15.48;;;6.85;;
45316;SDS011;31053;55.870;37.592;2023-02-18T13:43:34;12.93;;;7.03;;
45316;SDS011;31053;55.870;37.592;2023-02-18T13:46:50;14.93;;;7.15;;
45316;SDS011;31053;55.870;37.592;2023-02-18T13:54:45;13.75;;;6.80;;
45316;SDS011;31053;55.870;37.592;2023-02-18T13:57:58;16.48;;;6.70;;
45316;SDS011;31053;55.870;37.592;2023-02-18T14:01:22;15.25;;;6.75;;
45316;SDS011;31053;55.870;37.592;2023-02-18T14:04:50;12.63;;;7.10;;
45316;SDS011;31053;55.870;37.592;2023-02-18T14:08:12;12.30;;;5.97;;
45316;SDS011;31053;55.870;37.592;2023-02-18T14:17:33;15.02;;;6.70;;
45316;SDS011;31053;55.870;37.592;2023-02-18T14:23:44;12.05;;;5.72;;
45316;SDS011;31053;55.870;37.592;2023-02-18T14:27:05;18.63;;;7.40;;
45316;SDS011;31053;55.870;37.592;2023-02-18T14:33:29;14.00;;;6.90;;
45316;SDS011;31053;55.870;37.592;2023-02-18T14:36:40;18.80;;;8.57;;
45316;SDS011;31053;55.870;37.592;2023-02-18T14:39:59;12.50;;;6.53;;
45316;SDS011;31053;55.870;37.592;2023-02-18T14:53:04;14.45;;;6.43;;
45316;SDS011;31053;55.870;37.592;2023-02-18T14:56:15;13.32;;;5.75;;
45316;SDS011;31053;55.870;37.592;2023-02-18T14:59:23;13.20;;;5.72;;
45316;SDS011;31053;55.870;37.592;2023-02-18T15:02:33;13.10;;;6.47;;
45316;SDS011;31053;55.870;37.592;2023-02-18T15:05:41;13.93;;;6.00;;
45316;SDS011;31053;55.870;37.592;2023-02-18T15:08:46;14.13;;;6.60;;
45316;SDS011;31053;55.870;37.592;2023-02-18T15:12:04;12.27;;;5.47;;
45316;SDS011;31053;55.870;37.592;2023-02-18T15:15:12;13.75;;;6.50;;
45316;SDS011;31053;55.870;37.592;2023-02-18T15:21:50;12.32;;;5.57;;
45316;SDS011;31053;55.870;37.592;2023-02-18T15:24:57;16.45;;;6.60;;
45316;SDS011;31053;55.870;37.592;2023-02-18T15:28:02;12.57;;;6.00;;
45316;SDS011;31053;55.870;37.592;2023-02-18T15:31:08;15.75;;;6.93;;
45316;SDS011;31053;55.870;37.592;2023-02-18T15:37:32;14.32;;;6.88;;
45316;SDS011;31053;55.870;37.592;2023-02-18T15:40:37;18.45;;;8.07;;
45316;SDS011;31053;55.870;37.592;2023-02-18T15:44:02;14.57;;;6.72;;
45316;SDS011;31053;55.870;37.592;2023-02-18T15:47:08;18.08;;;7.70;;
45316;SDS011;31053;55.870;37.592;2023-02-18T15:50:56;14.70;;;6.47;;
45316;SDS011;31053;55.870;37.592;2023-02-18T15:53:41;12.30;;;6.10;;
45316;SDS011;31053;55.870;37.592;2023-02-18T15:56:56;11.85;;;5.32;;
45316;SDS011;31053;55.870;37.592;2023-02-18T16:00:12;12.68;;;5.53;;
45316;SDS011;31053;55.870;37.592;2023-02-18T16:06:43;14.52;;;6.70;;
45316;SDS011;31053;55.870;37.592;2023-02-18T16:09:50;11.75;;;5.63;;
45316;SDS011;31053;55.870;37.592;2023-02-18T16:13:11;19.17;;;8.57;;
45316;SDS011;31053;55.870;37.592;2023-02-18T16:16:36;14.27;;;6.65;;
45316;SDS011;31053;55.870;37.592;2023-02-18T16:19:50;12.48;;;5.68;;
45316;SDS011;31053;55.870;37.592;2023-02-18T16:22:58;10.95;;;4.90;;
45316;SDS011;31053;55.870;37.592;2023-02-18T16:26:08;14.60;;;6.00;;
45316;SDS011;31053;55.870;37.592;2023-02-18T16:32:39;10.93;;;5.43;;
45316;SDS011;31053;55.870;37.592;2023-02-18T16:35:44;11.82;;;5.13;;
45316;SDS011;31053;55.870;37.592;2023-02-18T16:38:51;21.33;;;6.72;;
45316;SDS011;31053;55.870;37.592;2023-02-18T16:41:56;14.38;;;6.10;;
45316;SDS011;31053;55.870;37.592;2023-02-18T16:45:01;13.70;;;6.32;;
45316;SDS011;31053;55.870;37.592;2023-02-18T16:48:41;21.08;;;8.75;;
45316;SDS011;31053;55.870;37.592;2023-02-18T16:51:47;13.25;;;5.80;;
45316;SDS011;31053;55.870;37.592;2023-02-18T16:54:55;18.27;;;6.80;;
45316;SDS011;31053;55.870;37.592;2023-02-18T16:58:00;17.58;;;7.32;;
45316;SDS011;31053;55.870;37.592;2023-02-18T17:01:05;14.10;;;6.15;;
45316;SDS011;31053;55.870;37.592;2023-02-18T17:04:11;15.68;;;6.78;;
45316;SDS011;31053;55.870;37.592;2023-02-18T17:07:19;14.43;;;6.40;;
45316;SDS011;31053;55.870;37.592;2023-02-18T17:10:24;14.68;;;6.70;;
45316;SDS011;31053;55.870;37.592;2023-02-18T17:13:28;14.25;;;7.55;;
45316;SDS011;31053;55.870;37.592;2023-02-18T17:16:33;19.00;;;8.30;;
45316;SDS011;31053;55.870;37.592;2023-02-18T17:19:38;16.52;;;7.57;;
45316;SDS011;31053;55.870;37.592;2023-02-18T17:22:43;14.68;;;7.10;;
45316;SDS011;31053;55.870;37.592;2023-02-18T17:25:50;20.25;;;7.28;;
45316;SDS011;31053;55.870;37.592;2023-02-18T17:28:56;13.23;;;6.70;;
45316;SDS011;31053;55.870;37.592;2023-02-18T17:32:03;15.35;;;6.90;;
45316;SDS011;31053;55.870;37.592;2023-02-18T17:38:24;14.25;;;5.35;;
45316;SDS011;31053;55.870;37.592;2023-02-18T17:41:52;12.13;;;5.80;;
45316;SDS011;31053;55.870;37.592;2023-02-18T17:45:42;18.33;;;6.85;;
45316;SDS011;31053;55.870;37.592;2023-02-18T17:48:43;21.08;;;7.60;;
45316;SDS011;31053;55.870;37.592;2023-02-18T17:51:49;13.50;;;6.10;;
45316;SDS011;31053;55.870;37.592;2023-02-18T17:54:53;15.70;;;6.38;;
45316;SDS011;31053;55.870;37.592;2023-02-18T17:58:09;14.60;;;6.50;;
45316;SDS011;31053;55.870;37.592;2023-02-18T18:01:17;15.13;;;7.70;;
45316;SDS011;31053;55.870;37.592;2023-02-18T18:04:23;16.75;;;6.80;;
45316;SDS011;31053;55.870;37.592;2023-02-18T18:07:27;13.57;;;6.47;;
45316;SDS011;31053;55.870;37.592;2023-02-18T18:26:31;18.05;;;7.63;;
45316;SDS011;31053;55.870;37.592;2023-02-18T18:29:36;12.80;;;6.55;;
45316;SDS011;31053;55.870;37.592;2023-02-18T18:32:42;16.33;;;7.65;;
45316;SDS011;31053;55.870;37.592;2023-02-18T18:35:55;14.98;;;7.32;;
45316;SDS011;31053;55.870;37.592;2023-02-18T18:39:01;14.93;;;7.25;;
45316;SDS011;31053;55.870;37.592;2023-02-18T18:42:06;18.02;;;7.13;;
45316;SDS011;31053;55.870;37.592;2023-02-18T18:45:17;20.35;;;6.10;;
45316;SDS011;31053;55.870;37.592;2023-02-18T18:48:30;14.70;;;6.80;;
45316;SDS011;31053;55.870;37.592;2023-02-18T18:51:48;22.08;;;7.25;;
45316;SDS011;31053;55.870;37.592;2023-02-18T18:58:56;13.88;;;6.10;;
45316;SDS011;31053;55.870;37.592;2023-02-18T19:02:01;18.08;;;6.78;;
45316;SDS011;31053;55.870;37.592;2023-02-18T19:05:09;14.73;;;6.68;;
45316;SDS011;31053;55.870;37.592;2023-02-18T19:08:20;11.50;;;5.60;;
45316;SDS011;31053;55.870;37.592;2023-02-18T19:11:24;13.50;;;5.93;;
45316;SDS011;31053;55.870;37.592;2023-02-18T19:14:29;13.45;;;6.25;;
45316;SDS011;31053;55.870;37.592;2023-02-18T19:17:33;12.48;;;5.90;;
45316;SDS011;31053;55.870;37.592;2023-02-18T19:20:37;14.48;;;6.03;;
45316;SDS011;31053;55.870;37.592;2023-02-18T19:23:43;13.30;;;6.25;;
45316;SDS011;31053;55.870;37.592;2023-02-18T19:26:54;14.02;;;6.50;;
45316;SDS011;31053;55.870;37.592;2023-02-18T19:29:58;13.95;;;6.93;;
45316;SDS011;31053;55.870;37.592;2023-02-18T19:33:03;13.32;;;6.63;;
45316;SDS011;31053;55.870;37.592;2023-02-18T19:36:09;13.38;;;6.45;;
45316;SDS011;31053;55.870;37.592;2023-02-18T19:39:14;14.60;;;7.03;;
45316;SDS011;31053;55.870;37.592;2023-02-18T19:42:22;12.38;;;6.40;;
45316;SDS011;31053;55.870;37.592;2023-02-18T19:45:27;12.43;;;7.07;;
45316;SDS011;31053;55.870;37.592;2023-02-18T19:48:34;14.88;;;6.30;;
45316;SDS011;31053;55.870;37.592;2023-02-18T19:51:39;16.55;;;6.75;;
45316;SDS011;31053;55.870;37.592;2023-02-18T19:54:43;16.05;;;7.28;;
45316;SDS011;31053;55.870;37.592;2023-02-18T19:57:48;18.65;;;8.43;;
45316;SDS011;31053;55.870;37.592;2023-02-18T20:00:54;16.27;;;7.00;;
45316;SDS011;31053;55.870;37.592;2023-02-18T20:07:12;15.95;;;7.18;;
45316;SDS011;31053;55.870;37.592;2023-02-18T20:10:17;13.20;;;6.55;;
45316;SDS011;31053;55.870;37.592;2023-02-18T20:13:28;14.20;;;7.05;;
45316;SDS011;31053;55.870;37.592;2023-02-18T20:16:33;15.65;;;7.20;;
45316;SDS011;31053;55.870;37.592;2023-02-18T20:19:38;17.42;;;6.80;;
45316;SDS011;31053;55.870;37.592;2023-02-18T20:22:52;16.00;;;7.82;;
45316;SDS011;31053;55.870;37.592;2023-02-18T20:25:57;22.38;;;7.32;;
45316;SDS011;31053;55.870;37.592;2023-02-18T20:29:05;13.93;;;6.32;;
45316;SDS011;31053;55.870;37.592;2023-02-18T20:32:11;16.00;;;7.40;;
45316;SDS011;31053;55.870;37.592;2023-02-18T20:35:16;17.90;;;7.75;;
45316;SDS011;31053;55.870;37.592;2023-02-18T20:38:21;17.13;;;7.78;;
45316;SDS011;31053;55.870;37.592;2023-02-18T20:41:55;16.40;;;7.45;;
45316;SDS011;31053;55.870;37.592;2023-02-18T20:45:14;13.93;;;6.30;;
45316;SDS011;31053;55.870;37.592;2023-02-18T20:48:20;15.13;;;7.15;;
45316;SDS011;31053;55.870;37.592;2023-02-18T20:51:24;18.98;;;8.48;;
45316;SDS011;31053;55.870;37.592;2023-02-18T20:54:30;19.25;;;8.60;;
45316;SDS011;31053;55.870;37.592;2023-02-18T21:03:16;21.10;;;7.72;;
45316;SDS011;31053;55.870;37.592;2023-02-18T21:23:44;15.43;;;7.53;;
45316;SDS011;31053;55.870;37.592;2023-02-18T21:26:49;13.15;;;6.20;;
45316;SDS011;31053;55.870;37.592;2023-02-18T21:29:56;23.77;;;8.02;;
45316;SDS011;31053;55.870;37.592;2023-02-18T21:33:02;18.48;;;8.02;;
45316;SDS011;31053;55.870;37.592;2023-02-18T21:36:08;16.35;;;8.07;;
45316;SDS011;31053;55.870;37.592;2023-02-18T21:39:12;19.75;;;8.32;;
45316;SDS011;31053;55.870;37.592;2023-02-18T21:42:17;19.98;;;7.68;;
45316;SDS011;31053;55.870;37.592;2023-02-18T21:45:21;20.23;;;9.25;;
45316;SDS011;31053;55.870;37.592;2023-02-18T21:48:30;17.98;;;8.80;;
45316;SDS011;31053;55.870;37.592;2023-02-18T21:51:55;16.45;;;7.80;;